Time;durP1;ratioP1;P1;durP2;ratioP2;P2;SDS_P1;SDS_P2;PMS_P1;PMS_P2;Temp;Humidity;BMP_temperature;BMP_pressure;BME280_temperature;BME280_humidity;BME280_pressure;Samples;Min_cycle;Max_cycle;Signal;HPM_P1;HPM_P2
2022/08/01 00:00:33;;;;;;;2.97;1.60;;;22.10;67.50;;;;;;4873861;29;20550;-72
2022/08/01 00:03:00;;;;;;;3.20;1.70;;;22.10;67.50;;;;;;4879342;29;20057;-70
2022/08/01 00:05:28;;;;;;;4.30;1.30;;;22.10;67.60;;;;;;4877732;29;20056;-71
2022/08/01 00:07:56;;;;;;;3.63;1.75;;;22.10;67.50;;;;;;4876167;29;20405;-71
2022/08/01 00:10:24;;;;;;;4.10;1.75;;;22.00;67.60;;;;;;4878631;29;20530;-71
2022/08/01 00:12:52;;;;;;;3.63;1.60;;;22.00;67.70;;;;;;4879170;29;20052;-72
2022/08/01 00:15:19;;;;;;;5.05;1.65;;;21.90;67.70;;;;;;4875401;29;20061;-69
2022/08/01 00:17:46;;;;;;;2.28;1.42;;;21.90;67.70;;;;;;4877852;29;20044;-69
2022/08/01 00:20:15;;;;;;;4.78;1.52;;;21.90;68.00;;;;;;4877875;29;20049;-71
2022/08/01 00:22:42;;;;;;;2.92;1.73;;;21.80;68.10;;;;;;4866904;29;20068;-71
2022/08/01 00:25:09;;;;;;;4.00;1.80;;;21.80;68.20;;;;;;4877499;29;20104;-70
2022/08/01 00:27:36;;;;;;;3.83;1.65;;;21.70;68.30;;;;;;4871301;29;20069;-70
2022/08/01 00:30:06;;;;;;;3.05;1.52;;;21.70;68.50;;;;;;4877085;29;20055;-70
2022/08/01 00:32:32;;;;;;;2.45;1.50;;;21.60;68.70;;;;;;4878564;29;20322;-71
2022/08/01 00:34:59;;;;;;;2.70;1.63;;;21.60;68.80;;;;;;4872560;29;20113;-72
2022/08/01 00:37:27;;;;;;;1.98;0.95;;;21.60;69.00;;;;;;4878608;29;20045;-70
2022/08/01 00:39:55;;;;;;;3.70;1.35;;;21.60;69.10;;;;;;4878733;29;20065;-72
2022/08/01 00:42:22;;;;;;;2.50;1.52;;;21.50;69.30;;;;;;4879308;29;20055;-72
2022/08/01 00:44:49;;;;;;;6.25;2.00;;;21.60;69.30;;;;;;4871575;29;20077;-71
2022/08/01 00:47:18;;;;;;;2.78;1.52;;;21.50;69.40;;;;;;4872933;29;20044;-71
2022/08/01 00:49:45;;;;;;;4.55;1.38;;;21.50;69.60;;;;;;4875351;29;20065;-69
2022/08/01 00:52:12;;;;;;;2.58;1.70;;;21.50;69.60;;;;;;4877727;29;20055;-71
2022/08/01 00:54:41;;;;;;;2.72;1.55;;;21.50;69.70;;;;;;4871786;29;20053;-71
2022/08/01 00:57:09;;;;;;;4.75;1.73;;;21.50;69.70;;;;;;4872351;29;20084;-72
2022/08/01 00:59:36;;;;;;;4.13;1.52;;;21.50;69.90;;;;;;4849018;29;20595;-72
2022/08/01 01:02:03;;;;;;;6.20;1.90;;;21.50;69.80;;;;;;4855917;29;20080;-72
2022/08/01 01:04:32;;;;;;;3.03;1.50;;;21.50;69.90;;;;;;4861592;29;20427;-70
2022/08/01 01:07:07;;;;;;;3.42;1.80;;;21.50;70.00;;;;;;4874426;29;20072;-71
2022/08/01 01:09:39;;;;;;;3.40;1.40;;;21.40;70.10;;;;;;4866771;29;20067;-72
2022/08/01 01:12:18;;;;;;;2.75;1.50;;;21.40;70.20;;;;;;4864279;29;20072;-71
2022/08/01 01:14:51;;;;;;;3.17;1.42;;;21.30;70.30;;;;;;4869607;29;20045;-70
2022/08/01 01:17:23;;;;;;;2.38;1.42;;;21.30;70.60;;;;;;4866679;29;20112;-69
2022/08/01 01:19:56;;;;;;;3.25;1.50;;;21.30;70.40;;;;;;4868398;29;20492;-71
2022/08/01 01:22:36;;;;;;;2.22;1.40;;;21.30;70.20;;;;;;4867990;29;21585;-72
2022/08/01 01:25:19;;;;;;;2.13;1.40;;;21.30;70.50;;;;;;4866151;29;20049;-72
2022/08/01 01:27:58;;;;;;;2.25;1.35;;;21.30;70.60;;;;;;4868885;29;20049;-71
2022/08/01 01:30:30;;;;;;;2.50;1.48;;;21.30;70.60;;;;;;4866341;29;20057;-71
2022/08/01 01:33:02;;;;;;;2.22;1.33;;;21.20;70.80;;;;;;4866792;29;20041;-71
2022/08/01 01:35:34;;;;;;;3.58;1.20;;;21.30;70.80;;;;;;4867870;29;20077;-69
2022/08/01 01:38:11;;;;;;;2.97;1.60;;;21.30;70.90;;;;;;4868738;29;20057;-70
2022/08/01 01:40:40;;;;;;;4.43;1.55;;;21.30;71.00;;;;;;4869206;29;20049;-70
2022/08/01 01:43:11;;;;;;;4.82;1.63;;;21.20;71.20;;;;;;4871944;29;20045;-72
2022/08/01 01:45:41;;;;;;;4.90;1.75;;;21.20;71.10;;;;;;4867689;29;20492;-71
2022/08/01 01:48:10;;;;;;;3.58;1.70;;;21.20;71.30;;;;;;4868072;29;20041;-71
2022/08/01 01:50:38;;;;;;;3.20;1.65;;;21.20;71.30;;;;;;4866676;29;20045;-70
2022/08/01 01:53:06;;;;;;;3.38;1.55;;;21.10;71.50;;;;;;4864292;29;20954;-71
2022/08/01 01:55:35;;;;;;;5.00;1.50;;;21.10;71.60;;;;;;4862341;29;20072;-70
2022/08/01 01:58:04;;;;;;;4.97;1.77;;;21.10;71.60;;;;;;4866772;29;20216;-69
2022/08/01 02:00:33;;;;;;;3.42;1.52;;;21.10;71.40;;;;;;4867063;29;20531;-69
2022/08/01 02:03:04;;;;;;;3.13;1.40;;;21.20;71.40;;;;;;4867945;29;20109;-70
2022/08/01 02:05:34;;;;;;;2.45;1.50;;;21.20;71.40;;;;;;4869396;29;20485;-71
2022/08/01 02:08:02;;;;;;;3.17;1.67;;;21.10;71.70;;;;;;4873635;29;20045;-70
2022/08/01 02:10:31;;;;;;;2.92;1.40;;;21.10;71.60;;;;;;4872148;29;20051;-71
2022/08/01 02:13:00;;;;;;;5.78;1.63;;;21.20;71.60;;;;;;4873114;29;20064;-69
2022/08/01 02:15:30;;;;;;;2.33;1.40;;;21.20;71.50;;;;;;4871290;29;20045;-70
2022/08/01 02:17:58;;;;;;;3.00;1.30;;;21.20;71.50;;;;;;4869063;29;20112;-72
2022/08/01 02:20:30;;;;;;;2.40;1.45;;;21.20;71.70;;;;;;4869776;29;20529;-71
2022/08/01 02:23:02;;;;;;;4.07;1.70;;;21.20;71.70;;;;;;4872312;29;20097;-69
2022/08/01 02:25:34;;;;;;;3.75;1.83;;;21.20;71.60;;;;;;4869556;29;20058;-70
2022/08/01 02:28:06;;;;;;;2.78;1.40;;;21.30;71.60;;;;;;4871401;29;20056;-70
2022/08/01 02:30:36;;;;;;;7.15;2.00;;;21.30;71.50;;;;;;4869638;29;20048;-69
2022/08/01 02:33:07;;;;;;;2.83;1.40;;;21.30;71.50;;;;;;4868201;29;20136;-70
2022/08/01 02:35:41;;;;;;;2.35;1.40;;;21.30;71.50;;;;;;4869617;29;20052;-73
2022/08/01 02:38:11;;;;;;;2.38;1.33;;;21.30;71.50;;;;;;4866947;29;20518;-69
2022/08/01 02:40:42;;;;;;;2.58;1.27;;;21.30;71.70;;;;;;4869023;29;20121;-72
2022/08/01 02:43:11;;;;;;;2.70;1.40;;;21.30;71.70;;;;;;4867824;29;20158;-71
2022/08/01 02:45:43;;;;;;;2.42;1.35;;;21.30;71.50;;;;;;4869336;29;20053;-72
2022/08/01 02:48:13;;;;;;;2.85;1.02;;;21.30;71.50;;;;;;4866248;29;20055;-71
2022/08/01 02:50:45;;;;;;;3.80;1.42;;;21.30;71.80;;;;;;4867958;29;20045;-71
2022/08/01 02:53:13;;;;;;;2.63;1.08;;;21.30;71.90;;;;;;4871284;29;20086;-71
2022/08/01 02:55:42;;;;;;;2.15;1.15;;;21.40;71.80;;;;;;4868342;29;20045;-70
2022/08/01 02:58:11;;;;;;;2.17;1.10;;;21.30;71.90;;;;;;4879469;29;20051;-70
2022/08/01 03:00:40;;;;;;;2.13;1.15;;;21.40;71.90;;;;;;4871299;29;20045;-72
2022/08/01 03:03:08;;;;;;;1.97;0.97;;;21.40;71.90;;;;;;4871265;29;20041;-70
2022/08/01 03:05:39;;;;;;;3.78;1.38;;;21.30;72.00;;;;;;4871589;29;20510;-70
2022/08/01 03:08:09;;;;;;;2.80;1.40;;;21.40;72.00;;;;;;4869280;29;20138;-72
2022/08/01 03:10:39;;;;;;;3.70;1.73;;;21.40;72.00;;;;;;4872677;29;20113;-71
2022/08/01 03:13:08;;;;;;;2.78;1.52;;;21.30;72.00;;;;;;4870550;29;20556;-71
2022/08/01 03:15:40;;;;;;;2.38;1.15;;;21.40;71.90;;;;;;4861743;29;20093;-70
2022/08/01 03:18:10;;;;;;;3.55;1.30;;;21.30;72.00;;;;;;4869202;29;20044;-70
2022/08/01 03:20:37;;;;;;;2.08;1.30;;;21.40;72.10;;;;;;4875119;29;20139;-72
2022/08/01 03:23:08;;;;;;;2.78;1.40;;;21.40;72.10;;;;;;4874844;29;20056;-71
2022/08/01 03:25:39;;;;;;;3.92;1.48;;;21.40;72.10;;;;;;4874274;29;20551;-70
2022/08/01 03:28:07;;;;;;;3.03;1.20;;;21.40;72.10;;;;;;4878506;29;20041;-71
2022/08/01 03:30:37;;;;;;;5.43;1.42;;;21.30;72.10;;;;;;4870880;29;20131;-72
2022/08/01 03:33:05;;;;;;;4.10;1.75;;;21.30;72.10;;;;;;4876129;29;20148;-71
2022/08/01 03:35:37;;;;;;;4.15;1.80;;;21.40;72.10;;;;;;4874962;29;20125;-71
2022/08/01 03:38:06;;;;;;;5.00;1.80;;;21.30;72.20;;;;;;4866219;29;20053;-70
2022/08/01 03:40:39;;;;;;;2.50;1.60;;;21.30;72.40;;;;;;4873748;29;20048;-70
2022/08/01 03:43:11;;;;;;;2.30;1.48;;;21.30;72.50;;;;;;4868124;29;20052;-69
2022/08/01 03:45:43;;;;;;;3.17;1.50;;;21.30;72.70;;;;;;4867852;29;20041;-71
2022/08/01 03:48:14;;;;;;;3.10;1.55;;;21.30;72.80;;;;;;4866096;29;20073;-71
2022/08/01 03:50:44;;;;;;;4.57;1.60;;;21.30;72.80;;;;;;4869251;29;20041;-69
2022/08/01 03:53:12;;;;;;;4.45;1.58;;;21.30;73.00;;;;;;4868210;29;20052;-71
2022/08/01 03:55:44;;;;;;;3.60;1.92;;;21.30;72.80;;;;;;4867117;29;20578;-71
2022/08/01 03:58:12;;;;;;;4.05;1.90;;;21.30;72.90;;;;;;4873413;29;20065;-72
2022/08/01 04:00:40;;;;;;;4.60;1.85;;;21.30;72.90;;;;;;4872724;29;20415;-71
2022/08/01 04:03:08;;;;;;;4.20;2.00;;;21.30;72.70;;;;;;4870314;29;20037;-70
2022/08/01 04:05:36;;;;;;;4.90;1.88;;;21.30;73.00;;;;;;4872907;29;20041;-72
2022/08/01 04:08:03;;;;;;;6.13;1.63;;;21.30;72.80;;;;;;4873804;29;20056;-72
2022/08/01 04:10:30;;;;;;;2.53;1.60;;;21.40;72.90;;;;;;4874039;29;20420;-71
2022/08/01 04:13:00;;;;;;;4.57;1.50;;;21.40;72.90;;;;;;4872143;29;20080;-71
2022/08/01 04:15:27;;;;;;;3.33;1.65;;;21.40;72.90;;;;;;4867542;29;20056;-72
2022/08/01 04:17:54;;;;;;;2.47;1.33;;;21.40;72.90;;;;;;4869330;29;20048;-71
2022/08/01 04:20:22;;;;;;;1.90;1.17;;;21.40;72.90;;;;;;4868891;29;20045;-72
2022/08/01 04:22:49;;;;;;;3.53;1.67;;;21.40;72.90;;;;;;4866385;29;20056;-71
2022/08/01 04:25:21;;;;;;;2.78;1.30;;;21.50;72.80;;;;;;4867902;29;20487;-72
2022/08/01 04:27:51;;;;;;;4.30;1.40;;;21.50;72.80;;;;;;4871170;29;20084;-71
2022/08/01 04:30:22;;;;;;;;;;;21.50;73.00;;;;;;4869034;29;20741;-71
2022/08/01 04:32:52;;;;;;;2.63;1.20;;;21.40;73.00;;;;;;4864311;29;19928;-72
2022/08/01 04:35:20;;;;;;;2.67;1.20;;;21.50;73.00;;;;;;4871265;29;20507;-71
2022/08/01 04:37:50;;;;;;;2.17;1.20;;;21.50;73.20;;;;;;4867436;29;20059;-72
2022/08/01 04:40:21;;;;;;;2.72;1.20;;;21.50;73.20;;;;;;4867078;29;20167;-73
2022/08/01 04:42:50;;;;;;;2.38;1.35;;;21.50;73.30;;;;;;4870479;29;20048;-70
2022/08/01 04:45:17;;;;;;;2.95;1.52;;;21.50;73.20;;;;;;4864519;29;20053;-72
2022/08/01 04:47:47;;;;;;;4.03;1.40;;;21.50;73.40;;;;;;4870066;29;20108;-72
2022/08/01 04:50:15;;;;;;;3.42;1.40;;;21.50;73.40;;;;;;4877041;29;20053;-73
2022/08/01 04:52:43;;;;;;;4.97;1.30;;;21.60;73.30;;;;;;4869839;29;20084;-73
2022/08/01 04:55:10;;;;;;;3.72;1.40;;;21.50;73.50;;;;;;4869803;29;20545;-74
2022/08/01 04:57:39;;;;;;;4.15;1.40;;;21.50;73.60;;;;;;4873314;29;20068;-73
2022/08/01 05:00:08;;;;;;;5.88;1.30;;;21.50;73.60;;;;;;4868709;29;20069;-71
2022/08/01 05:02:35;;;;;;;3.97;1.37;;;21.50;73.70;;;;;;4866058;29;20053;-71
2022/08/01 05:05:05;;;;;;;3.15;1.35;;;21.50;73.80;;;;;;4869530;29;21062;-71
2022/08/01 05:07:32;;;;;;;3.25;1.52;;;21.60;74.00;;;;;;4872276;29;20445;-70
2022/08/01 05:10:01;;;;;;;4.25;1.88;;;21.60;74.00;;;;;;4862800;29;20494;-72
2022/08/01 05:12:28;;;;;;;5.43;1.38;;;21.50;73.90;;;;;;4864150;29;20518;-72
2022/08/01 05:14:56;;;;;;;3.03;1.50;;;21.60;73.90;;;;;;4871080;29;20053;-72
2022/08/01 05:17:23;;;;;;;2.63;1.52;;;21.50;73.80;;;;;;4859679;29;20201;-71
2022/08/01 05:19:50;;;;;;;2.92;1.35;;;21.50;74.10;;;;;;4863059;29;20421;-71
2022/08/01 05:22:18;;;;;;;2.35;1.20;;;21.50;74.40;;;;;;4867147;29;20136;-71
2022/08/01 05:24:46;;;;;;;3.00;1.30;;;21.50;74.50;;;;;;4866212;29;20061;-70
2022/08/01 05:27:13;;;;;;;3.70;1.48;;;21.50;74.30;;;;;;4867136;29;20098;-72
2022/08/01 05:29:42;;;;;;;3.42;1.50;;;21.60;74.50;;;;;;4866280;29;20069;-73
2022/08/01 05:32:09;;;;;;;3.60;1.40;;;21.60;74.60;;;;;;4876006;29;20178;-73
2022/08/01 05:34:36;;;;;;;3.08;1.20;;;21.60;74.30;;;;;;4869449;29;20412;-73
2022/08/01 05:37:03;;;;;;;6.47;1.50;;;21.60;74.30;;;;;;4864574;29;20061;-72
2022/08/01 05:39:32;;;;;;;2.00;1.30;;;21.60;74.40;;;;;;4875851;29;20044;-72
2022/08/01 05:41:59;;;;;;;1.63;0.95;;;21.60;74.30;;;;;;4880494;29;20487;-73
2022/08/01 05:44:26;;;;;;;3.28;1.27;;;21.70;74.30;;;;;;4880332;29;20053;-72
2022/08/01 05:46:53;;;;;;;9.40;1.30;;;21.70;74.20;;;;;;4881507;29;20132;-73
2022/08/01 05:49:20;;;;;;;2.78;1.35;;;21.70;74.20;;;;;;4873246;29;20076;-73
2022/08/01 05:51:47;;;;;;;4.20;0.93;;;21.80;73.90;;;;;;4876194;29;20403;-72
2022/08/01 05:54:14;;;;;;;4.18;1.30;;;21.80;73.70;;;;;;4880102;29;20425;-74
2022/08/01 05:56:43;;;;;;;3.08;1.40;;;21.80;73.30;;;;;;4879959;29;20110;-72
2022/08/01 05:59:10;;;;;;;4.18;1.13;;;21.80;73.50;;;;;;4869712;29;20526;-71
2022/08/01 06:01:37;;;;;;;4.25;1.40;;;21.90;73.30;;;;;;4878829;29;20049;-72
2022/08/01 06:04:05;;;;;;;3.25;1.25;;;22.00;73.10;;;;;;4877415;29;20131;-72
2022/08/01 06:06:32;;;;;;;2.53;1.30;;;22.10;73.40;;;;;;4874787;29;20049;-72
2022/08/01 06:08:59;;;;;;;2.95;1.33;;;22.10;73.30;;;;;;4877633;29;20068;-73
2022/08/01 06:11:26;;;;;;;2.75;1.50;;;22.10;73.20;;;;;;4879330;29;20041;-72
2022/08/01 06:13:54;;;;;;;4.65;1.10;;;22.10;72.90;;;;;;4878367;29;20069;-72
2022/08/01 06:16:21;;;;;;;2.88;1.50;;;22.10;73.00;;;;;;4872658;29;20053;-72
2022/08/01 06:18:48;;;;;;;3.50;1.30;;;22.10;72.80;;;;;;4872257;29;20048;-73
2022/08/01 06:21:15;;;;;;;2.72;1.08;;;22.20;72.60;;;;;;4876982;29;20060;-73
2022/08/01 06:23:42;;;;;;;3.35;1.60;;;22.20;72.60;;;;;;4878046;29;20120;-74
2022/08/01 06:26:10;;;;;;;2.45;1.23;;;22.10;72.70;;;;;;4872120;29;20053;-73
2022/08/01 06:28:38;;;;;;;3.08;1.42;;;22.10;72.90;;;;;;4878160;29;20550;-72
2022/08/01 06:31:06;;;;;;;2.17;1.17;;;22.10;72.90;;;;;;4877361;29;20045;-73
2022/08/01 06:33:33;;;;;;;3.88;1.42;;;22.10;72.90;;;;;;4874021;29;20045;-71
2022/08/01 06:36:01;;;;;;;2.65;1.60;;;22.10;72.90;;;;;;4873908;29;20046;-72
2022/08/01 06:38:28;;;;;;;3.28;1.77;;;22.10;72.70;;;;;;4876535;29;20056;-73
2022/08/01 06:40:55;;;;;;;2.80;1.20;;;22.10;72.30;;;;;;4875501;29;20051;-73
2022/08/01 06:43:22;;;;;;;3.78;1.75;;;22.20;73.00;;;;;;4875206;29;20037;-73
2022/08/01 06:45:49;;;;;;;2.50;1.38;;;22.10;73.10;;;;;;4878219;29;20049;-72
2022/08/01 06:48:18;;;;;;;2.05;1.25;;;22.20;72.90;;;;;;4873649;29;20057;-72
2022/08/01 06:50:45;;;;;;;3.67;1.40;;;22.20;72.60;;;;;;4878485;29;20392;-70
2022/08/01 06:53:12;;;;;;;5.80;1.63;;;22.30;72.60;;;;;;4875793;29;20052;-74
2022/08/01 06:55:39;;;;;;;2.92;1.40;;;22.30;72.40;;;;;;4877185;29;20078;-71
2022/08/01 06:58:07;;;;;;;2.72;1.30;;;22.30;72.40;;;;;;4879085;29;20397;-73
2022/08/01 07:00:34;;;;;;;2.70;1.23;;;22.50;72.00;;;;;;4872056;29;20056;-71
2022/08/01 07:03:01;;;;;;;1.98;1.23;;;22.50;72.00;;;;;;4871980;29;20044;-73
2022/08/01 07:05:31;;;;;;;2.63;1.50;;;22.50;71.90;;;;;;4876707;29;20049;-70
2022/08/01 07:07:58;;;;;;;2.45;1.38;;;22.60;71.80;;;;;;4873028;29;20076;-72
2022/08/01 07:10:26;;;;;;;3.65;1.63;;;22.60;71.70;;;;;;4874546;29;20086;-73
2022/08/01 07:12:53;;;;;;;2.88;1.50;;;22.60;71.70;;;;;;4871526;29;20143;-73
2022/08/01 07:15:26;;;;;;;3.45;1.65;;;22.60;71.50;;;;;;4872279;29;20105;-74
2022/08/01 07:17:53;;;;;;;4.63;1.35;;;22.70;71.40;;;;;;4874713;29;20053;-72
2022/08/01 07:20:20;;;;;;;3.90;1.48;;;22.80;71.20;;;;;;4873325;29;20350;-71
2022/08/01 07:22:49;;;;;;;4.07;1.50;;;22.90;71.00;;;;;;4871560;29;20048;-72
2022/08/01 07:25:16;;;;;;;4.70;1.60;;;22.90;70.80;;;;;;4872220;29;20056;-73
2022/08/01 07:27:44;;;;;;;3.15;1.63;;;23.00;70.70;;;;;;4872175;29;20044;-70
2022/08/01 07:30:12;;;;;;;3.22;1.55;;;23.10;70.60;;;;;;4873661;29;20048;-71
2022/08/01 07:32:39;;;;;;;2.58;1.70;;;23.10;70.50;;;;;;4872893;29;20073;-72
2022/08/01 07:35:07;;;;;;;2.85;1.45;;;23.10;70.00;;;;;;4872998;29;20049;-73
2022/08/01 07:37:34;;;;;;;3.58;1.48;;;23.10;70.00;;;;;;4872433;29;20076;-72
2022/08/01 07:40:04;;;;;;;5.75;1.52;;;23.10;70.00;;;;;;4872042;29;20370;-72
2022/08/01 07:42:31;;;;;;;2.00;1.08;;;23.10;69.70;;;;;;4876733;29;20056;-72
2022/08/01 07:44:58;;;;;;;2.22;1.30;;;23.10;69.60;;;;;;4869333;29;20120;-72
2022/08/01 07:47:25;;;;;;;7.75;1.60;;;23.20;69.80;;;;;;4871783;29;20056;-73
2022/08/01 07:49:53;;;;;;;3.72;1.42;;;23.20;69.50;;;;;;4871574;29;20117;-72
2022/08/01 07:52:20;;;;;;;2.97;1.55;;;23.30;69.40;;;;;;4872931;29;20049;-72
2022/08/01 07:54:47;;;;;;;3.78;1.40;;;23.30;69.20;;;;;;4875099;29;20080;-73
2022/08/01 07:57:15;;;;;;;3.25;1.60;;;23.30;69.10;;;;;;4867747;29;20061;-71
2022/08/01 07:59:43;;;;;;;2.42;1.27;;;23.40;68.80;;;;;;4871333;29;20052;-72
2022/08/01 08:02:10;;;;;;;3.47;1.70;;;23.40;68.60;;;;;;4873532;29;20128;-72
2022/08/01 08:04:37;;;;;;;4.72;2.03;;;23.40;68.70;;;;;;4863786;29;20059;-71
2022/08/01 08:07:04;;;;;;;4.20;2.13;;;23.40;68.60;;;;;;4873915;29;20049;-72
2022/08/01 08:09:31;;;;;;;2.97;1.52;;;23.50;68.40;;;;;;4874000;29;20055;-73
2022/08/01 08:11:58;;;;;;;4.30;1.45;;;23.60;68.30;;;;;;4875245;29;20041;-70
2022/08/01 08:14:26;;;;;;;3.03;1.60;;;23.80;68.10;;;;;;4866967;29;20063;-70
2022/08/01 08:16:53;;;;;;;2.45;1.42;;;24.00;67.40;;;;;;4866589;29;20079;-72
2022/08/01 08:19:20;;;;;;;3.88;1.83;;;24.10;67.00;;;;;;4872540;29;20048;-71
2022/08/01 08:21:48;;;;;;;3.75;1.40;;;24.10;66.60;;;;;;4875107;29;20076;-71
2022/08/01 08:24:20;;;;;;;5.47;1.67;;;24.10;66.50;;;;;;4871218;29;20124;-72
2022/08/01 08:26:48;;;;;;;2.65;1.40;;;24.10;66.80;;;;;;4870908;29;20100;-71
2022/08/01 08:29:15;;;;;;;2.85;1.48;;;24.10;66.70;;;;;;4864262;29;20048;-72
2022/08/01 08:31:44;;;;;;;2.78;1.50;;;24.10;66.50;;;;;;4868767;29;20049;-72
2022/08/01 08:34:11;;;;;;;3.43;1.80;;;24.10;66.30;;;;;;4882845;29;20050;-70
2022/08/01 08:36:38;;;;;;;2.25;1.30;;;24.10;66.30;;;;;;4875036;29;20045;-72
2022/08/01 08:39:06;;;;;;;2.20;1.42;;;24.20;66.30;;;;;;4872468;29;20449;-70
2022/08/01 08:41:33;;;;;;;3.58;1.50;;;24.30;66.10;;;;;;4867537;29;20052;-72
2022/08/01 08:44:01;;;;;;;3.58;1.70;;;24.40;66.00;;;;;;4869638;29;20038;-73
2022/08/01 08:46:29;;;;;;;3.78;1.50;;;24.50;65.80;;;;;;4869962;29;20040;-73
2022/08/01 08:48:57;;;;;;;3.70;1.63;;;24.50;65.60;;;;;;4868545;29;20041;-71
2022/08/01 08:51:27;;;;;;;1.87;1.30;;;24.50;65.40;;;;;;4867389;29;20556;-72
2022/08/01 08:53:56;;;;;;;2.10;1.40;;;24.50;64.90;;;;;;4875213;29;20041;-73
2022/08/01 08:56:25;;;;;;;1.65;1.10;;;24.50;64.30;;;;;;4868548;29;20065;-71
2022/08/01 08:58:53;;;;;;;2.20;1.13;;;24.40;64.60;;;;;;4877452;29;20059;-71
2022/08/01 09:01:20;;;;;;;2.80;1.30;;;24.50;64.40;;;;;;4874727;29;20057;-71
2022/08/01 09:03:48;;;;;;;2.83;1.40;;;24.60;63.90;;;;;;4871730;29;20053;-72
2022/08/01 09:06:17;;;;;;;1.77;1.00;;;24.80;63.60;;;;;;4869152;29;20540;-73
2022/08/01 09:08:43;;;;;;;2.70;1.50;;;24.90;62.80;;;;;;4872650;29;20053;-72
2022/08/01 09:11:11;;;;;;;3.22;1.30;;;25.00;62.10;;;;;;4864687;29;20521;-70
2022/08/01 09:13:38;;;;;;;2.00;1.30;;;25.00;61.90;;;;;;4873743;29;20055;-72
2022/08/01 09:16:06;;;;;;;2.40;1.38;;;25.00;62.00;;;;;;4870116;29;20049;-70
2022/08/01 09:18:35;;;;;;;3.72;1.90;;;25.00;61.50;;;;;;4871812;29;20047;-70
2022/08/01 09:21:11;;;;;;;1.92;1.05;;;25.00;61.90;;;;;;4870324;29;20060;-72
2022/08/01 09:23:42;;;;;;;3.20;1.52;;;25.00;61.50;;;;;;4869786;29;20458;-70
2022/08/01 09:26:09;;;;;;;4.15;1.85;;;25.00;61.60;;;;;;4866113;29;20064;-71
2022/08/01 09:28:37;;;;;;;3.75;1.80;;;25.00;61.60;;;;;;4869270;29;20053;-71
2022/08/01 09:31:09;;;;;;;6.03;1.63;;;25.10;61.60;;;;;;4868470;29;20063;-71
2022/08/01 09:33:53;;;;;;;2.63;1.25;;;25.10;61.40;;;;;;4868371;29;20440;-72
2022/08/01 09:36:21;;;;;;;2.78;1.33;;;25.30;61.40;;;;;;4875898;29;20059;-70
2022/08/01 09:38:51;;;;;;;3.58;1.70;;;25.50;61.30;;;;;;4866689;29;20053;-71
2022/08/01 09:41:29;;;;;;;4.57;1.48;;;25.60;61.20;;;;;;4872812;29;20057;-72
2022/08/01 09:43:56;;;;;;;4.85;1.90;;;25.70;61.00;;;;;;4875011;29;20214;-71
2022/08/01 09:46:23;;;;;;;4.05;1.65;;;25.90;60.60;;;;;;4874056;29;20068;-70
2022/08/01 09:49:01;;;;;;;4.95;2.25;;;26.10;60.40;;;;;;4874902;29;20053;-71
2022/08/01 09:51:34;;;;;;;5.20;2.40;;;26.20;58.70;;;;;;4869277;29;20149;-71
2022/08/01 09:54:05;;;;;;;5.95;3.03;;;26.20;58.30;;;;;;4866266;29;20116;-70
2022/08/01 09:56:38;;;;;;;5.55;2.90;;;26.30;57.80;;;;;;4874713;29;20491;-72
2022/08/01 09:59:05;;;;;;;5.88;2.88;;;26.50;57.50;;;;;;4864033;29;20407;-71
2022/08/01 10:01:44;;;;;;;5.47;2.90;;;26.50;57.10;;;;;;4866101;29;20041;-69
2022/08/01 10:04:13;;;;;;;5.40;2.70;;;26.50;57.20;;;;;;4874718;29;20060;-73
2022/08/01 10:06:42;;;;;;;5.32;2.47;;;26.50;56.60;;;;;;4870881;29;20041;-71
2022/08/01 10:09:10;;;;;;;;;;;26.50;56.50;;;;;;4869249;29;20053;-72
2022/08/01 10:11:38;;;;;;;5.05;1.92;;;26.60;55.60;;;;;;4868990;29;19924;-71
2022/08/01 10:14:07;;;;;;;3.47;1.83;;;26.60;56.10;;;;;;4869113;29;20531;-71
2022/08/01 10:16:36;;;;;;;1.98;1.33;;;26.70;54.90;;;;;;4867698;29;20041;-71
2022/08/01 10:19:06;;;;;;;3.33;1.75;;;26.80;54.70;;;;;;4868049;29;20500;-71
2022/08/01 10:21:34;;;;;;;2.15;1.10;;;26.80;54.90;;;;;;4868446;29;20077;-72
2022/08/01 10:24:04;;;;;;;3.10;1.73;;;27.00;54.80;;;;;;4878130;29;20049;-72
2022/08/01 10:26:34;;;;;;;4.28;1.77;;;27.10;53.90;;;;;;4869462;29;20102;-71
2022/08/01 10:29:02;;;;;;;4.53;1.67;;;27.40;53.30;;;;;;4875652;29;20051;-70
2022/08/01 10:31:32;;;;;;;4.85;1.45;;;27.60;53.70;;;;;;4867936;29;20064;-70
2022/08/01 10:34:00;;;;;;;4.57;1.80;;;27.60;52.90;;;;;;4876383;29;20033;-71
2022/08/01 10:36:29;;;;;;;5.72;2.17;;;27.80;52.70;;;;;;4870883;29;20110;-72
2022/08/01 10:38:56;;;;;;;4.25;2.15;;;27.80;52.90;;;;;;4878083;29;20056;-71
2022/08/01 10:41:25;;;;;;;6.03;2.60;;;27.70;52.90;;;;;;4870518;29;20400;-72
2022/08/01 10:43:54;;;;;;;7.32;2.15;;;27.70;52.30;;;;;;4871201;29;20053;-72
2022/08/01 10:46:21;;;;;;;3.13;1.50;;;27.80;51.40;;;;;;4874319;29;20187;-73
2022/08/01 10:48:55;;;;;;;3.40;1.50;;;28.00;49.70;;;;;;4869642;29;20129;-72
2022/08/01 10:51:23;;;;;;;3.83;1.30;;;28.10;49.00;;;;;;4866998;29;20091;-71
2022/08/01 10:53:52;;;;;;;1.73;1.00;;;28.00;48.90;;;;;;4876646;29;20056;-72
2022/08/01 10:56:20;;;;;;;1.58;0.90;;;27.90;49.20;;;;;;4876555;29;20132;-71
2022/08/01 10:58:48;;;;;;;2.35;1.20;;;27.70;47.40;;;;;;4873649;29;20071;-70
2022/08/01 11:01:27;;;;;;;2.33;1.40;;;27.70;48.00;;;;;;4871217;29;20052;-70
2022/08/01 11:04:04;;;;;;;1.65;1.13;;;27.90;47.50;;;;;;4873428;29;20485;-70
2022/08/01 11:06:42;;;;;;;2.38;1.20;;;28.00;47.90;;;;;;4867421;29;20058;-72
2022/08/01 11:09:40;;;;;;;2.00;1.05;;;28.10;48.10;;;;;;4866438;29;20113;-70
2022/08/01 11:12:10;;;;;;;2.20;1.20;;;28.30;48.30;;;;;;4869433;29;20061;-71
2022/08/01 11:15:10;;;;;;;2.00;1.20;;;28.40;47.80;;;;;;4878541;29;20040;-71
2022/08/01 11:17:44;;;;;;;2.17;1.15;;;28.50;46.30;;;;;;4864017;29;20048;-73
2022/08/01 11:20:12;;;;;;;2.95;1.40;;;28.70;46.30;;;;;;4870156;29;20869;-69
2022/08/01 11:23:27;;;;;;;3.28;1.90;;;28.70;46.60;;;;;;4874216;29;20037;-71
2022/08/01 11:26:24;;;;;;;4.97;2.40;;;28.60;46.70;;;;;;4875157;29;20060;-71
2022/08/01 11:29:14;;;;;;;3.90;2.03;;;28.60;46.40;;;;;;4876522;29;20117;-71
2022/08/01 11:31:41;;;;;;;3.67;1.92;;;28.60;46.30;;;;;;4868215;29;20051;-70
2022/08/01 11:34:10;;;;;;;2.60;1.63;;;28.60;46.30;;;;;;4874346;29;20136;-70
2022/08/01 11:36:37;;;;;;;3.35;1.80;;;28.50;46.60;;;;;;4868573;29;20445;-71
2022/08/01 11:39:15;;;;;;;3.15;1.40;;;28.40;46.00;;;;;;4868758;29;20065;-72
2022/08/01 11:41:44;;;;;;;4.78;1.80;;;28.30;46.40;;;;;;4876825;29;20543;-70
2022/08/01 11:44:13;;;;;;;3.58;1.77;;;28.20;47.00;;;;;;4864130;29;20129;-70
2022/08/01 11:47:03;;;;;;;4.10;1.92;;;28.10;46.60;;;;;;4872758;29;20045;-69
2022/08/01 11:49:54;;;;;;;4.25;2.10;;;28.10;46.80;;;;;;4867708;29;20061;-70
2022/08/01 11:52:27;;;;;;;5.78;2.47;;;28.10;46.90;;;;;;4868130;29;20053;-70
2022/08/01 11:54:57;;;;;;;4.18;2.08;;;28.10;46.90;;;;;;4863979;29;20045;-70
2022/08/01 11:57:26;;;;;;;3.45;1.70;;;28.30;47.30;;;;;;4869701;29;20423;-71
2022/08/01 11:59:56;;;;;;;4.10;1.85;;;28.40;47.30;;;;;;4868840;29;20112;-72
2022/08/01 12:02:25;;;;;;;3.25;1.50;;;28.50;47.10;;;;;;4873443;29;20049;-69
2022/08/01 12:04:55;;;;;;;3.13;1.85;;;28.50;47.00;;;;;;4873302;29;20047;-70
2022/08/01 12:07:23;;;;;;;3.38;1.80;;;28.60;46.90;;;;;;4879136;29;20120;-70
2022/08/01 12:09:58;;;;;;;3.25;1.38;;;28.60;46.60;;;;;;4871741;29;20109;-69
2022/08/01 12:12:25;;;;;;;2.53;1.48;;;28.50;46.60;;;;;;4867645;29;20120;-70
2022/08/01 12:14:56;;;;;;;3.40;1.50;;;28.50;46.10;;;;;;4871611;29;20394;-70
2022/08/01 12:17:37;;;;;;;3.35;1.75;;;28.40;46.40;;;;;;4871627;29;20083;-71
2022/08/01 12:20:11;;;;;;;3.88;1.60;;;28.30;46.30;;;;;;4872383;29;20045;-71
2022/08/01 12:22:38;;;;;;;2.75;1.10;;;28.20;46.50;;;;;;4865802;29;20056;-72
2022/08/01 12:25:07;;;;;;;3.58;1.60;;;28.10;46.40;;;;;;4867497;29;20068;-70
2022/08/01 12:27:35;;;;;;;2.92;1.70;;;28.00;46.20;;;;;;4865192;29;20077;-70
2022/08/01 12:30:02;;;;;;;2.65;1.60;;;28.00;46.60;;;;;;4869652;29;20037;-70
2022/08/01 12:32:30;;;;;;;3.40;1.80;;;28.00;46.70;;;;;;4872882;29;20120;-72
2022/08/01 12:35:01;;;;;;;3.95;2.00;;;28.00;46.70;;;;;;4867021;29;22122;-69
2022/08/01 12:37:29;;;;;;;2.40;1.63;;;28.10;46.60;;;;;;4872614;29;20174;-72
2022/08/01 12:39:57;;;;;;;3.17;1.80;;;28.10;46.60;;;;;;4866276;29;20097;-71
2022/08/01 12:42:25;;;;;;;5.20;2.67;;;28.20;46.70;;;;;;4869609;29;20041;-71
2022/08/01 12:44:54;;;;;;;5.15;2.22;;;28.20;47.10;;;;;;4864257;29;20095;-71
2022/08/01 12:47:22;;;;;;;4.85;2.47;;;28.10;46.80;;;;;;4869198;29;20090;-72
2022/08/01 12:49:50;;;;;;;3.08;1.77;;;28.10;46.90;;;;;;4865201;29;20121;-71
2022/08/01 12:52:22;;;;;;;3.75;1.95;;;28.00;47.20;;;;;;4868502;29;20095;-71
2022/08/01 12:55:08;;;;;;;5.97;2.00;;;28.00;47.20;;;;;;4872590;29;20053;-71
2022/08/01 12:57:35;;;;;;;3.45;2.03;;;27.90;47.40;;;;;;4873929;29;20052;-71
2022/08/01 13:00:18;;;;;;;3.25;1.90;;;27.90;47.30;;;;;;4875432;29;20053;-71